createdAt,value
2019-03-04T00:00:17.519Z,4.10
2019-03-04T00:01:17.496Z,4.80
2019-03-04T00:02:17.472Z,4.40
2019-03-04T00:03:17.456Z,4.80
2019-03-04T00:04:17.439Z,4.30
2019-03-04T00:05:17.433Z,4.00
2019-03-04T00:06:17.402Z,4.70
2019-03-04T00:07:17.384Z,3.90
2019-03-04T00:08:17.373Z,4.10
2019-03-04T00:09:17.353Z,4.00
2019-03-04T00:10:17.329Z,4.20
2019-03-04T00:11:17.331Z,3.80
2019-03-04T00:12:17.299Z,3.80
2019-03-04T00:13:17.285Z,4.00
2019-03-04T00:14:17.263Z,4.50
2019-03-04T00:15:17.243Z,3.90
2019-03-04T00:16:17.223Z,3.90
2019-03-04T00:17:17.215Z,4.20
2019-03-04T00:18:17.189Z,4.40
2019-03-04T00:19:17.182Z,4.00
2019-03-04T00:20:17.163Z,4.10
2019-03-04T00:21:17.143Z,4.20
2019-03-04T00:22:17.118Z,4.30
2019-03-04T00:23:17.109Z,3.70
2019-03-04T00:24:17.084Z,4.10
2019-03-04T00:25:17.065Z,4.20
2019-03-04T00:26:17.048Z,3.60
2019-03-04T00:27:17.028Z,4.50
2019-03-04T00:28:17.013Z,3.40
2019-03-04T00:29:16.991Z,4.00
2019-03-04T00:30:16.979Z,3.50
2019-03-04T00:31:16.965Z,4.00
2019-03-04T00:32:16.940Z,4.50
2019-03-04T00:33:16.920Z,4.20
2019-03-04T00:34:16.898Z,4.00
2019-03-04T00:35:16.882Z,3.40
2019-03-04T00:36:16.878Z,3.70
2019-03-04T00:37:16.846Z,3.60
2019-03-04T00:38:16.828Z,3.90
2019-03-04T00:39:16.817Z,3.70
2019-03-04T00:40:16.795Z,3.70
2019-03-04T00:41:16.784Z,4.40
2019-03-04T00:42:16.760Z,3.80
2019-03-04T00:43:16.737Z,3.60
2019-03-04T00:44:16.721Z,3.90
2019-03-04T00:45:16.715Z,3.60
2019-03-04T00:46:16.689Z,3.90
2019-03-04T00:47:16.730Z,3.60
2019-03-04T00:48:16.649Z,4.30
2019-03-04T00:49:16.634Z,3.50
2019-03-04T00:50:16.612Z,3.70
2019-03-04T00:51:16.598Z,3.60
2019-03-04T00:52:16.577Z,3.70
2019-03-04T00:53:16.559Z,3.70
2019-03-04T00:54:16.545Z,3.80
2019-03-04T00:55:16.525Z,3.50
2019-03-04T00:56:16.506Z,4.50
2019-03-04T00:57:16.488Z,3.80
2019-03-04T00:58:16.477Z,3.80
2019-03-04T00:59:16.450Z,3.80
2019-03-04T01:00:16.432Z,3.90
2019-03-04T01:01:16.421Z,3.70
2019-03-04T01:02:16.399Z,3.80
2019-03-04T01:03:16.379Z,3.60
2019-03-04T01:04:16.372Z,3.90
2019-03-04T01:05:16.354Z,3.80
2019-03-04T01:06:16.326Z,3.50
2019-03-04T01:07:16.307Z,3.40
2019-03-04T01:08:16.290Z,3.40
2019-03-04T01:09:16.273Z,3.30
2019-03-04T01:10:16.259Z,4.10
2019-03-04T01:11:16.236Z,3.70
2019-03-04T01:12:16.219Z,3.60
2019-03-04T01:13:16.200Z,3.70
2019-03-04T01:14:16.185Z,3.90
2019-03-04T01:15:16.166Z,3.90
2019-03-04T01:16:16.149Z,3.20
2019-03-04T01:17:16.130Z,3.50
2019-03-04T01:18:16.115Z,3.60
2019-03-04T01:19:16.093Z,3.80
2019-03-04T01:20:16.075Z,3.70
2019-03-04T01:21:16.058Z,3.30
2019-03-04T01:22:16.037Z,4.00
2019-03-04T01:23:16.021Z,4.10
2019-03-04T01:24:16.004Z,3.80
2019-03-04T01:25:15.990Z,4.10
2019-03-04T01:26:15.968Z,3.80
2019-03-04T01:27:15.954Z,3.50
2019-03-04T01:28:15.936Z,3.70
2019-03-04T01:29:15.914Z,3.30
2019-03-04T01:30:15.897Z,4.00
2019-03-04T01:31:15.879Z,3.50
2019-03-04T01:32:15.861Z,3.60
2019-03-04T01:33:15.846Z,3.80
2019-03-04T01:34:15.822Z,4.30
2019-03-04T01:35:15.807Z,3.50
2019-03-04T01:36:15.792Z,3.60
2019-03-04T01:37:15.770Z,4.00
2019-03-04T01:38:15.754Z,3.70
2019-03-04T01:39:15.734Z,3.70
2019-03-04T01:40:15.719Z,3.30
2019-03-04T01:41:15.702Z,3.50
2019-03-04T01:42:15.682Z,3.60
2019-03-04T01:43:15.660Z,3.40
2019-03-04T01:44:15.643Z,3.80
2019-03-04T01:45:15.626Z,3.50
2019-03-04T01:46:16.988Z,3.70
2019-03-04T01:47:15.590Z,3.80
2019-03-04T01:48:15.573Z,4.00
2019-03-04T01:49:15.556Z,3.70
2019-03-04T01:50:15.536Z,3.70
2019-03-04T01:51:15.520Z,3.30
2019-03-04T01:52:15.498Z,3.70
2019-03-04T01:53:15.484Z,3.60
2019-03-04T01:54:15.464Z,3.10
2019-03-04T01:55:15.445Z,3.60
2019-03-04T01:56:15.435Z,3.60
2019-03-04T01:57:15.417Z,3.90
2019-03-04T01:58:15.395Z,3.50
2019-03-04T01:59:15.375Z,3.50
2019-03-04T02:00:15.357Z,3.20
2019-03-04T02:01:15.340Z,3.60
2019-03-04T02:02:15.327Z,3.90
2019-03-04T02:03:15.311Z,3.60
2019-03-04T02:04:15.282Z,3.70
2019-03-04T02:05:15.270Z,3.60
2019-03-04T02:06:15.251Z,3.60
2019-03-04T02:07:15.229Z,4.10
2019-03-04T02:08:15.215Z,4.40
2019-03-04T02:09:15.200Z,3.40
2019-03-04T02:10:15.174Z,3.40
2019-03-04T02:11:15.163Z,3.60
2019-03-04T02:12:15.143Z,3.60
2019-03-04T02:13:15.123Z,3.60
2019-03-04T02:14:15.104Z,3.60
2019-03-04T02:15:15.084Z,3.40
2019-03-04T02:16:15.067Z,3.60
2019-03-04T02:17:15.051Z,4.10
2019-03-04T02:18:15.036Z,3.70
2019-03-04T02:19:15.012Z,3.50
2019-03-04T02:20:15.031Z,3.70
2019-03-04T02:21:14.980Z,3.40
2019-03-04T02:22:14.958Z,3.70
2019-03-04T02:23:14.941Z,3.30
2019-03-04T02:24:14.922Z,3.80
2019-03-04T02:25:14.909Z,3.60
2019-03-04T02:26:14.888Z,3.40
2019-03-04T02:27:14.871Z,3.60
2019-03-04T02:28:14.853Z,3.40
2019-03-04T02:29:14.836Z,3.50
2019-03-04T02:30:14.816Z,3.40
2019-03-04T02:31:14.806Z,3.40
2019-03-04T02:32:14.783Z,3.10
2019-03-04T02:33:14.767Z,2.80
2019-03-04T02:34:14.744Z,3.50
2019-03-04T02:35:14.729Z,3.40
2019-03-04T02:36:14.709Z,3.50
2019-03-04T02:37:14.691Z,3.60
2019-03-04T02:38:14.674Z,3.10
2019-03-04T02:39:14.659Z,3.80
2019-03-04T02:40:14.643Z,3.10
2019-03-04T02:41:14.624Z,3.30
2019-03-04T02:42:14.608Z,2.90
2019-03-04T02:43:14.585Z,3.40
2019-03-04T02:44:14.566Z,3.10
2019-03-04T02:45:14.601Z,3.00
2019-03-04T02:46:14.531Z,2.90
2019-03-04T02:47:14.514Z,2.80
2019-03-04T02:48:14.494Z,3.30
2019-03-04T02:49:14.482Z,3.50
2019-03-04T02:50:14.458Z,3.00
2019-03-04T02:51:14.440Z,2.90
2019-03-04T02:52:14.419Z,3.20
2019-03-04T02:53:14.402Z,2.90
2019-03-04T02:54:14.385Z,2.60
2019-03-04T02:55:14.364Z,2.90
2019-03-04T02:56:14.373Z,3.30
2019-03-04T02:57:14.329Z,2.90
2019-03-04T02:58:14.312Z,2.90
2019-03-04T02:59:14.293Z,2.80
2019-03-04T03:00:14.282Z,2.40
2019-03-04T03:01:14.259Z,2.70
2019-03-04T03:02:14.243Z,2.40
2019-03-04T03:03:14.222Z,2.90
2019-03-04T03:04:14.203Z,2.80
2019-03-04T03:05:14.190Z,2.60
2019-03-04T03:06:14.168Z,2.40
2019-03-04T03:07:14.150Z,2.50
2019-03-04T03:08:14.130Z,2.40
2019-03-04T03:09:14.113Z,2.30
2019-03-04T03:10:14.100Z,2.60
2019-03-04T03:11:14.084Z,2.90
2019-03-04T03:12:14.067Z,2.60
2019-03-04T03:13:14.050Z,2.80
2019-03-04T03:14:14.028Z,2.50
2019-03-04T03:15:14.006Z,2.40
2019-03-04T03:16:13.988Z,2.80
2019-03-04T03:17:13.976Z,2.50
2019-03-04T03:18:13.962Z,2.60
2019-03-04T03:19:13.934Z,2.60
2019-03-04T03:20:13.933Z,2.50
2019-03-04T03:21:13.898Z,2.60
2019-03-04T03:22:13.894Z,2.40
2019-03-04T03:23:13.872Z,2.50
2019-03-04T03:24:13.844Z,2.80
2019-03-04T03:25:13.828Z,2.40
2019-03-04T03:26:13.808Z,2.20
2019-03-04T03:27:13.793Z,2.40
2019-03-04T03:28:13.780Z,2.70
2019-03-04T03:29:13.758Z,2.40
2019-03-04T03:30:13.770Z,2.50
2019-03-04T03:31:13.725Z,2.50
2019-03-04T03:32:13.719Z,2.40
2019-03-04T03:33:13.708Z,2.50
2019-03-04T03:34:13.670Z,2.60
2019-03-04T03:35:13.656Z,2.20
2019-03-04T03:36:13.632Z,2.60
2019-03-04T03:37:13.614Z,2.60
2019-03-04T03:38:13.594Z,2.50
2019-03-04T03:39:13.576Z,2.40
2019-03-04T03:40:13.565Z,2.40
2019-03-04T03:41:13.542Z,2.70
2019-03-04T03:42:13.540Z,2.20
2019-03-04T03:43:13.520Z,2.40
2019-03-04T03:44:13.488Z,2.40
2019-03-04T03:45:13.518Z,2.60
2019-03-04T03:46:13.450Z,2.90
2019-03-04T03:47:13.433Z,2.50
2019-03-04T03:48:13.424Z,2.30
2019-03-04T03:49:13.398Z,2.50
2019-03-04T03:50:13.390Z,2.60
2019-03-04T03:51:13.361Z,2.40
2019-03-04T03:52:13.344Z,2.30
2019-03-04T03:53:13.330Z,2.10
2019-03-04T03:54:13.338Z,2.50
2019-03-04T03:55:13.290Z,2.30
2019-03-04T03:56:13.278Z,2.40
2019-03-04T03:57:13.255Z,2.00
2019-03-04T03:58:13.251Z,2.30
2019-03-04T03:59:13.219Z,2.30
2019-03-04T04:00:13.213Z,2.30
2019-03-04T04:01:13.209Z,2.20
2019-03-04T04:02:13.164Z,2.10
2019-03-04T04:03:13.155Z,2.00
2019-03-04T04:04:13.128Z,2.20
2019-03-04T04:05:13.112Z,2.00
2019-03-04T04:06:13.091Z,2.20
2019-03-04T04:07:13.085Z,2.20
2019-03-04T04:08:13.055Z,2.20
2019-03-04T04:09:13.044Z,2.20
2019-03-04T04:10:13.031Z,2.00
2019-03-04T04:11:13.004Z,2.20
2019-03-04T04:12:12.986Z,1.90
2019-03-04T04:13:12.967Z,2.40
2019-03-04T04:14:12.951Z,1.90
2019-03-04T04:15:12.981Z,2.00
2019-03-04T04:16:12.912Z,1.90
2019-03-04T04:17:12.902Z,2.00
2019-03-04T04:18:12.877Z,1.70
2019-03-04T04:19:12.860Z,2.00
2019-03-04T04:20:12.848Z,2.00
2019-03-04T04:21:12.825Z,1.90
2019-03-04T04:22:12.803Z,2.10
2019-03-04T04:23:12.866Z,2.20
2019-03-04T04:24:12.771Z,2.10
2019-03-04T04:25:12.761Z,1.90
2019-03-04T04:26:12.734Z,1.90
2019-03-04T04:27:12.719Z,2.20
2019-03-04T04:28:12.697Z,2.00
2019-03-04T04:29:12.676Z,2.10
2019-03-04T04:30:12.667Z,1.80
2019-03-04T04:31:12.659Z,2.30
2019-03-04T04:32:12.630Z,1.90
2019-03-04T04:33:12.608Z,1.90
2019-03-04T04:34:12.587Z,2.00
2019-03-04T04:35:12.570Z,2.10
2019-03-04T04:36:12.551Z,2.20
2019-03-04T04:37:12.535Z,1.80
2019-03-04T04:38:12.516Z,2.20
2019-03-04T04:39:12.502Z,1.90
2019-03-04T04:40:12.492Z,2.40
2019-03-04T04:41:12.463Z,1.90
2019-03-04T04:42:12.443Z,2.20
2019-03-04T04:43:12.427Z,2.00
2019-03-04T04:44:12.408Z,2.30
2019-03-04T04:45:12.390Z,2.40
2019-03-04T04:46:12.376Z,2.30
2019-03-04T04:47:12.354Z,2.20
2019-03-04T04:48:12.336Z,2.20
2019-03-04T04:49:12.318Z,2.10
2019-03-04T04:50:12.302Z,2.40
2019-03-04T04:51:12.283Z,2.10
2019-03-04T04:52:12.262Z,2.00
2019-03-04T04:53:12.254Z,2.20
2019-03-04T04:54:12.231Z,2.20
2019-03-04T04:55:12.212Z,2.40
2019-03-04T04:56:12.195Z,2.70
2019-03-04T04:57:12.176Z,2.60
2019-03-04T04:58:12.156Z,2.50
2019-03-04T04:59:12.141Z,2.60
2019-03-04T05:00:12.121Z,2.30
2019-03-04T05:01:12.101Z,2.40
2019-03-04T05:02:12.082Z,2.30
2019-03-04T05:03:12.064Z,2.50
2019-03-04T05:04:12.046Z,2.60
2019-03-04T05:05:12.031Z,2.50
2019-03-04T05:06:13.096Z,2.50
2019-03-04T05:07:11.992Z,2.60
2019-03-04T05:08:11.974Z,2.40
2019-03-04T05:09:11.956Z,2.40
2019-03-04T05:10:11.938Z,2.70
2019-03-04T05:11:11.925Z,2.50
2019-03-04T05:12:11.903Z,2.20
2019-03-04T05:13:11.885Z,2.50
2019-03-04T05:14:11.866Z,2.40
2019-03-04T05:15:11.860Z,2.40
2019-03-04T05:16:11.833Z,2.20
2019-03-04T05:17:11.814Z,2.60
2019-03-04T05:18:11.795Z,2.40
2019-03-04T05:19:11.779Z,2.70
2019-03-04T05:20:11.762Z,2.40
2019-03-04T05:21:11.745Z,2.40
2019-03-04T05:22:11.724Z,2.10
2019-03-04T05:23:11.708Z,2.40
2019-03-04T05:24:11.689Z,2.50
2019-03-04T05:25:11.670Z,2.40
2019-03-04T05:26:11.656Z,2.50
2019-03-04T05:27:11.633Z,2.40
2019-03-04T05:28:11.616Z,2.60
2019-03-04T05:29:11.601Z,1.90
2019-03-04T05:30:11.580Z,2.20
2019-03-04T05:31:11.562Z,2.50
2019-03-04T05:32:11.545Z,2.20
2019-03-04T05:33:11.527Z,2.50
2019-03-04T05:34:11.508Z,2.30
2019-03-04T05:35:11.491Z,2.50
2019-03-04T05:36:11.475Z,2.50
2019-03-04T05:37:11.455Z,2.10
2019-03-04T05:38:11.438Z,2.30
2019-03-04T05:39:11.419Z,2.70
2019-03-04T05:40:11.401Z,2.00
2019-03-04T05:41:11.386Z,2.10
2019-03-04T05:42:11.369Z,2.30
2019-03-04T05:43:11.352Z,2.10
2019-03-04T05:44:11.330Z,2.30
2019-03-04T05:45:11.318Z,2.50
2019-03-04T05:46:11.300Z,2.40
2019-03-04T05:47:11.289Z,2.30
2019-03-04T05:48:11.261Z,2.10
2019-03-04T05:49:11.242Z,2.30
2019-03-04T05:50:11.226Z,2.30
2019-03-04T05:51:11.206Z,2.00
2019-03-04T05:52:11.194Z,2.10
2019-03-04T05:53:11.173Z,1.90
2019-03-04T05:54:11.156Z,2.10
2019-03-04T05:55:11.137Z,2.30
2019-03-04T05:56:11.126Z,2.30
2019-03-04T05:57:11.102Z,1.60
2019-03-04T05:58:11.086Z,2.10
2019-03-04T05:59:19.313Z,2.10
2019-03-04T06:00:11.050Z,1.90
2019-03-04T06:01:11.035Z,2.00
2019-03-04T06:02:11.016Z,1.70
2019-03-04T06:03:10.996Z,1.70
2019-03-04T06:04:10.992Z,2.00
2019-03-04T06:05:10.962Z,1.90
2019-03-04T06:06:10.941Z,2.00
2019-03-04T06:07:10.930Z,1.90
2019-03-04T06:08:10.910Z,1.60
2019-03-04T06:09:10.891Z,1.90
2019-03-04T06:10:10.871Z,1.70
2019-03-04T06:11:10.854Z,2.10
2019-03-04T06:12:10.839Z,1.80
2019-03-04T06:13:10.820Z,1.80
2019-03-04T06:14:10.805Z,1.80
2019-03-04T06:15:10.784Z,1.90
2019-03-04T06:16:10.775Z,1.90
2019-03-04T06:17:10.748Z,1.70
2019-03-04T06:18:10.730Z,1.70
2019-03-04T06:19:10.713Z,1.80
2019-03-04T06:20:10.694Z,1.80
2019-03-04T06:21:10.676Z,1.70
2019-03-04T06:22:10.658Z,1.70
2019-03-04T06:23:10.641Z,1.70
2019-03-04T06:24:10.624Z,1.80
2019-03-04T06:25:10.609Z,2.00
2019-03-04T06:26:10.589Z,1.60
2019-03-04T06:27:10.575Z,2.00
2019-03-04T06:28:10.559Z,1.60
2019-03-04T06:29:10.538Z,2.10
2019-03-04T06:30:10.517Z,1.70
2019-03-04T06:31:10.503Z,1.80
2019-03-04T06:32:10.494Z,1.60
2019-03-04T06:33:10.471Z,1.90
2019-03-04T06:34:10.447Z,1.80
2019-03-04T06:35:10.429Z,1.20
2019-03-04T06:36:10.426Z,1.40
2019-03-04T06:37:10.394Z,1.30
2019-03-04T06:38:10.374Z,1.30
2019-03-04T06:39:10.356Z,1.40
2019-03-04T06:40:10.337Z,1.20
2019-03-04T06:41:10.317Z,1.20
2019-03-04T06:42:10.302Z,1.20
2019-03-04T06:43:10.281Z,1.20
2019-03-04T06:44:10.265Z,1.30
2019-03-04T06:45:10.248Z,1.10
2019-03-04T06:46:10.224Z,1.10
2019-03-04T06:47:10.203Z,1.30
2019-03-04T06:48:10.186Z,1.30
2019-03-04T06:49:10.178Z,1.40
2019-03-04T06:50:10.153Z,1.20
2019-03-04T06:51:10.129Z,1.20
2019-03-04T06:52:10.110Z,1.20
2019-03-04T06:53:10.096Z,1.20
2019-03-04T06:54:10.074Z,1.10
2019-03-04T06:55:10.055Z,1.40
2019-03-04T06:56:10.038Z,1.10
2019-03-04T06:57:10.017Z,1.10
2019-03-04T06:58:10.001Z,1.20
2019-03-04T06:59:09.983Z,1.40
2019-03-04T07:00:09.965Z,1.20
2019-03-04T07:01:09.944Z,1.40
2019-03-04T07:02:09.927Z,1.30
2019-03-04T07:03:09.906Z,1.10
2019-03-04T07:04:09.882Z,1.20
2019-03-04T07:05:09.868Z,1.20
2019-03-04T07:06:09.846Z,1.30
2019-03-04T07:07:09.831Z,1.50
2019-03-04T07:08:09.815Z,1.20
2019-03-04T07:09:09.791Z,1.20
2019-03-04T07:10:09.770Z,1.30
2019-03-04T07:11:09.749Z,1.60
2019-03-04T07:12:09.733Z,1.10
2019-03-04T07:13:09.770Z,1.20
2019-03-04T07:14:09.701Z,1.40
2019-03-04T07:15:09.670Z,1.20
2019-03-04T07:16:09.653Z,1.50
2019-03-04T07:17:09.635Z,1.50
2019-03-04T07:18:09.612Z,1.10
2019-03-04T07:19:09.597Z,1.20
2019-03-04T07:20:09.571Z,1.30
2019-03-04T07:21:09.554Z,1.30
2019-03-04T07:22:11.092Z,1.30
2019-03-04T07:23:09.528Z,1.20
2019-03-04T07:24:09.499Z,1.30
2019-03-04T07:25:09.475Z,1.50
2019-03-04T07:26:09.461Z,1.30
2019-03-04T07:27:09.436Z,1.20
2019-03-04T07:28:09.455Z,1.20
2019-03-04T07:29:09.404Z,1.20
2019-03-04T07:30:09.386Z,1.30
2019-03-04T07:31:09.359Z,1.10
2019-03-04T07:32:09.339Z,1.10
2019-03-04T07:33:09.326Z,1.20
2019-03-04T07:34:09.305Z,1.10
2019-03-04T07:35:09.280Z,1.30
2019-03-04T07:36:09.261Z,1.30
2019-03-04T07:37:09.244Z,1.10
2019-03-04T07:38:09.227Z,1.30
2019-03-04T07:39:09.202Z,1.20
2019-03-04T07:40:09.184Z,1.30
2019-03-04T07:41:09.166Z,1.40
2019-03-04T07:42:09.142Z,1.40
2019-03-04T07:43:09.123Z,1.30
2019-03-04T07:44:09.106Z,1.20
2019-03-04T07:45:09.086Z,1.20
2019-03-04T07:46:09.077Z,1.20
2019-03-04T07:47:09.048Z,1.30
2019-03-04T07:48:09.027Z,1.30
2019-03-04T07:49:09.008Z,1.30
2019-03-04T07:50:08.994Z,1.70
2019-03-04T07:51:08.971Z,1.50
2019-03-04T07:52:08.951Z,1.40
2019-03-04T07:53:08.929Z,1.50
2019-03-04T07:54:08.925Z,1.40
2019-03-04T07:55:08.893Z,1.50
2019-03-04T07:56:08.874Z,1.60
2019-03-04T07:57:08.858Z,1.30
2019-03-04T07:58:08.836Z,1.70
2019-03-04T07:59:08.816Z,1.40
2019-03-04T08:00:08.811Z,1.50
2019-03-04T08:01:08.785Z,1.50
2019-03-04T08:02:08.764Z,1.50
2019-03-04T08:03:08.748Z,1.40
2019-03-04T08:04:08.733Z,1.60
2019-03-04T08:05:08.712Z,1.50
2019-03-04T08:06:08.693Z,1.80
2019-03-04T08:07:08.678Z,1.40
2019-03-04T08:08:08.661Z,1.70
2019-03-04T08:09:08.634Z,1.80
2019-03-04T08:10:08.616Z,1.20
2019-03-04T08:11:08.610Z,1.70
2019-03-04T08:12:08.579Z,1.70
2019-03-04T08:13:08.567Z,1.70
2019-03-04T08:14:08.554Z,2.00
2019-03-04T08:15:08.526Z,2.00
2019-03-04T08:16:08.511Z,1.80
2019-03-04T08:17:08.497Z,2.00
2019-03-04T08:18:08.486Z,2.10
2019-03-04T08:19:08.452Z,2.00
2019-03-04T08:20:08.434Z,2.00
2019-03-04T08:21:08.415Z,2.00
2019-03-04T08:22:08.396Z,1.90
2019-03-04T08:23:10.070Z,2.10
2019-03-04T08:24:08.362Z,2.40
2019-03-04T08:25:08.344Z,1.90
2019-03-04T08:26:08.323Z,2.10
2019-03-04T08:27:08.305Z,1.90
2019-03-04T08:28:08.293Z,2.10
2019-03-04T08:29:08.274Z,3.30
2019-03-04T08:30:08.252Z,10.10
2019-03-04T08:31:08.240Z,2.80
2019-03-04T08:32:08.215Z,4.40
2019-03-04T08:33:08.200Z,3.60
2019-03-04T08:34:09.362Z,3.50
2019-03-04T08:35:08.160Z,3.80
2019-03-04T08:36:08.144Z,5.40
2019-03-04T08:37:08.123Z,3.20
2019-03-04T08:38:08.108Z,4.00
2019-03-04T08:39:08.087Z,3.00
2019-03-04T08:40:08.066Z,3.80
2019-03-04T08:41:08.051Z,2.30
2019-03-04T08:42:08.030Z,3.00
2019-03-04T08:43:08.021Z,3.00
2019-03-04T08:44:07.988Z,2.70
2019-03-04T08:45:07.969Z,1.70
2019-03-04T08:46:07.959Z,1.70
2019-03-04T08:47:07.935Z,2.00
2019-03-04T08:48:07.912Z,2.40
2019-03-04T08:49:07.896Z,1.80
2019-03-04T08:50:07.874Z,3.00
2019-03-04T08:51:07.855Z,4.00
2019-03-04T08:52:07.837Z,3.20
2019-03-04T08:53:07.820Z,2.50
2019-03-04T08:54:07.799Z,1.90
2019-03-04T08:55:07.788Z,2.20
2019-03-04T08:56:07.776Z,2.10
2019-03-04T08:57:07.746Z,2.10
2019-03-04T08:58:07.728Z,1.70
2019-03-04T08:59:07.716Z,2.50
2019-03-04T09:00:07.711Z,3.60
2019-03-04T09:01:07.682Z,2.80
2019-03-04T09:02:07.663Z,2.20
2019-03-04T09:03:07.652Z,1.60
2019-03-04T09:04:07.633Z,1.80
2019-03-04T09:05:07.619Z,2.70
2019-03-04T09:06:07.605Z,2.60
2019-03-04T09:07:07.589Z,2.10
2019-03-04T09:08:07.577Z,2.10
2019-03-04T09:09:07.561Z,2.20
2019-03-04T09:10:07.545Z,2.20
2019-03-04T09:11:07.529Z,2.10
2019-03-04T09:12:07.524Z,1.60
2019-03-04T09:13:07.500Z,2.10
2019-03-04T09:14:07.484Z,1.90
2019-03-04T09:15:07.480Z,2.20
2019-03-04T09:16:07.452Z,1.90
2019-03-04T09:17:10.638Z,1.80
2019-03-04T09:18:07.426Z,2.10
2019-03-04T09:19:07.411Z,1.80
2019-03-04T09:20:07.404Z,1.60
2019-03-04T09:21:07.377Z,2.10
2019-03-04T09:22:07.361Z,2.00
2019-03-04T09:23:07.343Z,2.00
2019-03-04T09:24:07.325Z,2.10
2019-03-04T09:25:07.322Z,2.30
2019-03-04T09:26:07.295Z,2.20
2019-03-04T09:27:07.279Z,2.20
2019-03-04T09:28:07.258Z,2.20
2019-03-04T09:29:07.254Z,2.40
2019-03-04T09:30:07.225Z,2.90
2019-03-04T09:31:07.204Z,2.40
2019-03-04T09:32:07.197Z,2.80
2019-03-04T09:33:07.173Z,2.30
2019-03-04T09:34:07.157Z,2.50
2019-03-04T09:35:07.136Z,2.50
2019-03-04T09:36:07.121Z,2.40
2019-03-04T09:37:07.102Z,2.50
2019-03-04T09:38:07.082Z,2.80
2019-03-04T09:39:07.063Z,2.60
2019-03-04T09:40:07.048Z,3.20
2019-03-04T09:41:07.034Z,2.70
2019-03-04T09:42:07.011Z,2.60
2019-03-04T09:43:06.995Z,2.40
2019-03-04T09:44:06.974Z,2.40
2019-03-04T09:45:06.959Z,2.40
2019-03-04T09:46:06.936Z,2.60
2019-03-04T09:47:06.918Z,2.50
2019-03-04T09:48:06.909Z,2.80
2019-03-04T09:49:06.887Z,2.70
2019-03-04T09:50:06.867Z,2.60
2019-03-04T09:51:06.844Z,3.60
2019-03-04T09:52:06.825Z,3.10
2019-03-04T09:53:06.814Z,3.00
2019-03-04T09:54:06.788Z,3.20
2019-03-04T09:55:06.773Z,2.90
2019-03-04T09:56:06.759Z,2.50
2019-03-04T09:57:06.735Z,2.70
2019-03-04T09:58:06.716Z,2.70
2019-03-04T09:59:06.698Z,2.60
2019-03-04T10:00:06.678Z,2.70
2019-03-04T10:01:06.667Z,2.60
2019-03-04T10:02:06.641Z,3.00
2019-03-04T10:03:06.622Z,3.00
2019-03-04T10:04:06.605Z,2.60
2019-03-04T10:05:06.597Z,2.90
2019-03-04T10:06:06.565Z,2.80
2019-03-04T10:07:06.550Z,2.40
2019-03-04T10:08:06.532Z,3.70
2019-03-04T10:09:06.511Z,3.00
2019-03-04T10:10:06.491Z,2.90
2019-03-04T10:11:06.475Z,3.00
2019-03-04T10:12:06.456Z,3.10
2019-03-04T10:13:06.436Z,2.90
2019-03-04T10:14:06.416Z,2.70
2019-03-04T10:15:08.897Z,3.10
2019-03-04T10:16:06.380Z,3.30
2019-03-04T10:17:06.358Z,3.70
2019-03-04T10:18:06.347Z,3.20
2019-03-04T10:19:06.325Z,2.70
2019-03-04T10:20:06.307Z,2.80
2019-03-04T10:21:06.288Z,4.00
2019-03-04T10:22:06.272Z,9.50
2019-03-04T10:23:06.252Z,4.40
2019-03-04T10:24:06.228Z,3.20
2019-03-04T10:25:06.207Z,3.60
2019-03-04T10:26:06.188Z,3.60
2019-03-04T10:27:06.168Z,3.60
2019-03-04T10:28:06.149Z,6.30
2019-03-04T10:29:06.130Z,5.20
2019-03-04T10:30:06.120Z,3.80
2019-03-04T10:31:06.092Z,3.60
2019-03-04T10:32:06.071Z,3.10
2019-03-04T10:33:06.053Z,2.90
2019-03-04T10:34:06.036Z,4.60
2019-03-04T10:35:06.015Z,3.50
2019-03-04T10:36:06.000Z,3.00
2019-03-04T10:37:05.986Z,3.30
2019-03-04T10:38:05.956Z,2.40
2019-03-04T10:39:05.963Z,2.70
2019-03-04T10:40:05.936Z,2.90
2019-03-04T10:41:05.905Z,3.20
2019-03-04T10:42:05.885Z,2.90
2019-03-04T10:43:05.869Z,3.10
2019-03-04T10:44:05.851Z,2.80
2019-03-04T10:45:05.829Z,2.90
2019-03-04T10:46:05.811Z,2.70
2019-03-04T10:47:05.794Z,2.50
2019-03-04T10:48:05.771Z,2.70
2019-03-04T10:49:05.755Z,2.70
2019-03-04T10:50:05.739Z,2.70
2019-03-04T10:51:05.725Z,3.70
2019-03-04T10:52:05.701Z,3.80
2019-03-04T10:53:05.681Z,2.80
2019-03-04T10:54:05.669Z,3.70
2019-03-04T10:55:05.639Z,3.00
2019-03-04T10:56:05.626Z,2.60
2019-03-04T10:57:05.605Z,2.40
2019-03-04T10:58:05.592Z,1.90
2019-03-04T10:59:05.568Z,2.60
2019-03-04T11:00:05.550Z,2.40
2019-03-04T11:01:05.531Z,2.50
2019-03-04T11:02:05.512Z,3.00
2019-03-04T11:03:05.494Z,2.10
2019-03-04T11:04:05.474Z,3.20
2019-03-04T11:05:05.465Z,2.00
2019-03-04T11:06:05.449Z,2.70
2019-03-04T11:07:05.427Z,3.10
2019-03-04T11:08:05.401Z,3.40
2019-03-04T11:09:05.384Z,2.50
2019-03-04T11:10:05.362Z,2.40
2019-03-04T11:11:05.344Z,2.90
2019-03-04T11:12:05.333Z,2.90
2019-03-04T11:13:05.316Z,2.80
2019-03-04T11:14:05.295Z,2.90
2019-03-04T11:15:05.274Z,2.60
2019-03-04T11:16:05.268Z,2.20
2019-03-04T11:17:05.232Z,3.00
2019-03-04T11:18:05.219Z,3.50
2019-03-04T11:19:05.194Z,4.00
2019-03-04T11:20:05.180Z,3.10
2019-03-04T11:21:05.159Z,2.40
2019-03-04T11:22:05.139Z,2.50
2019-03-04T11:23:05.156Z,2.50
2019-03-04T11:24:05.102Z,2.00
2019-03-04T11:25:05.084Z,1.40
2019-03-04T11:26:05.059Z,3.30
2019-03-04T11:27:05.040Z,2.50
2019-03-04T11:28:05.018Z,2.00
2019-03-04T11:29:05.001Z,1.80
2019-03-04T11:30:04.980Z,2.00
2019-03-04T11:31:04.965Z,2.10
2019-03-04T11:32:04.945Z,2.70
2019-03-04T11:33:04.925Z,2.00
2019-03-04T11:34:04.914Z,1.40
2019-03-04T11:35:04.880Z,1.50
2019-03-04T11:36:04.859Z,1.40
2019-03-04T11:37:04.847Z,1.30
2019-03-04T11:38:04.831Z,1.30
2019-03-04T11:39:04.860Z,1.50
2019-03-04T11:40:04.779Z,10.20
2019-03-04T11:41:04.759Z,14.60
2019-03-04T11:42:04.737Z,11.00
2019-03-04T11:43:04.720Z,9.70
2019-03-04T11:44:04.712Z,5.50
2019-03-04T11:45:04.679Z,7.90
2019-03-04T11:46:04.658Z,17.70
2019-03-04T11:47:04.641Z,4.60
2019-03-04T11:48:04.628Z,4.40
2019-03-04T11:49:04.601Z,7.20
2019-03-04T11:50:04.579Z,3.70
2019-03-04T11:51:04.559Z,13.50
2019-03-04T11:52:04.546Z,5.00
2019-03-04T11:53:04.531Z,4.30
2019-03-04T11:54:04.498Z,1.50
2019-03-04T11:55:04.479Z,6.40
2019-03-04T11:56:04.461Z,4.50
2019-03-04T11:57:04.440Z,22.90
2019-03-04T11:58:04.421Z,6.20
2019-03-04T11:59:04.408Z,9.90
2019-03-04T12:00:04.393Z,65.00
2019-03-04T12:01:04.360Z,18.40
2019-03-04T12:02:04.353Z,25.30
2019-03-04T12:03:04.321Z,39.20
2019-03-04T12:04:04.302Z,20.90
2019-03-04T12:05:04.282Z,46.20
2019-03-04T12:06:04.268Z,29.90
2019-03-04T12:07:04.241Z,16.10
2019-03-04T12:08:04.222Z,24.30
2019-03-04T12:09:04.211Z,16.30
2019-03-04T12:10:04.191Z,4.80
2019-03-04T12:11:04.167Z,14.80
2019-03-04T12:12:04.140Z,4.20
2019-03-04T12:13:04.127Z,5.40
2019-03-04T12:14:04.104Z,5.60
2019-03-04T12:15:04.091Z,4.30
2019-03-04T12:16:04.082Z,2.90
2019-03-04T12:17:04.050Z,1.50
2019-03-04T12:18:04.028Z,2.30
2019-03-04T12:19:04.023Z,1.80
2019-03-04T12:20:03.990Z,1.50
2019-03-04T12:21:03.982Z,1.60
2019-03-04T12:22:03.951Z,1.60
2019-03-04T12:23:03.932Z,1.80
2019-03-04T12:24:03.931Z,2.00
2019-03-04T12:25:03.893Z,1.90
2019-03-04T12:26:03.877Z,1.60
2019-03-04T12:27:03.858Z,1.80
2019-03-04T12:28:03.836Z,3.20
2019-03-04T12:29:03.826Z,2.00
2019-03-04T12:30:03.819Z,1.80
2019-03-04T12:31:03.777Z,2.20
2019-03-04T12:32:03.759Z,2.20
2019-03-04T12:33:03.758Z,2.00
2019-03-04T12:34:03.720Z,2.20
2019-03-04T12:35:03.701Z,1.80
2019-03-04T12:36:03.685Z,1.70
2019-03-04T12:37:03.662Z,2.30
2019-03-04T12:38:03.644Z,2.10
2019-03-04T12:39:03.627Z,2.20
2019-03-04T12:40:03.605Z,2.00
2019-03-04T12:41:03.587Z,2.10
2019-03-04T12:42:03.567Z,2.20
2019-03-04T12:43:03.558Z,2.30
2019-03-04T12:44:03.528Z,2.00
2019-03-04T12:45:03.509Z,2.40
2019-03-04T12:46:03.491Z,2.30
2019-03-04T12:47:03.474Z,2.80
2019-03-04T12:48:03.462Z,2.30
2019-03-04T12:49:03.440Z,2.50
2019-03-04T12:50:03.421Z,2.50
2019-03-04T12:51:03.395Z,2.90
2019-03-04T12:52:03.378Z,2.70
2019-03-04T12:53:03.369Z,3.00
2019-03-04T12:54:03.351Z,2.70
2019-03-04T12:55:03.324Z,3.00
2019-03-04T12:56:03.307Z,2.90
2019-03-04T12:57:03.290Z,2.50
2019-03-04T12:58:03.262Z,3.00
2019-03-04T12:59:03.244Z,3.00
2019-03-04T13:00:03.234Z,2.90
2019-03-04T13:01:03.207Z,3.30
2019-03-04T13:02:03.186Z,3.10
2019-03-04T13:03:03.172Z,3.50
2019-03-04T13:04:03.152Z,3.00
2019-03-04T13:05:03.134Z,3.10
2019-03-04T13:06:03.132Z,2.90
2019-03-04T13:07:03.096Z,3.10
2019-03-04T13:08:03.076Z,2.80
2019-03-04T13:09:03.058Z,2.80
2019-03-04T13:10:03.043Z,3.20
2019-03-04T13:11:03.034Z,2.90
2019-03-04T13:12:03.003Z,2.90
2019-03-04T13:13:02.982Z,2.90
2019-03-04T13:14:02.962Z,3.00
2019-03-04T13:15:02.946Z,3.50
2019-03-04T13:16:02.967Z,2.70
2019-03-04T13:17:02.910Z,3.00